createdAt,value
2023-01-27T00:02:33.635Z,14.18
2023-01-27T00:05:34.412Z,11.80
2023-01-27T00:08:35.264Z,15.80
2023-01-27T00:11:54.708Z,14.60
2023-01-27T00:14:55.276Z,12.70
2023-01-27T00:17:56.339Z,11.50
2023-01-27T00:21:15.379Z,12.07
2023-01-27T00:24:35.167Z,12.57
2023-01-27T00:27:36.700Z,14.52
2023-01-27T00:30:37.673Z,14.32
2023-01-27T00:33:46.004Z,13.05
2023-01-27T00:36:47.062Z,10.38
2023-01-27T00:39:47.928Z,11.10
2023-01-27T00:42:48.833Z,12.95
2023-01-27T00:45:49.598Z,16.88
2023-01-27T00:48:54.214Z,13.32
2023-01-27T00:51:55.332Z,14.40
2023-01-27T00:54:56.194Z,10.73
2023-01-27T00:57:57.066Z,11.50
2023-01-27T01:01:00.718Z,11.52
2023-01-27T01:04:01.808Z,11.05
2023-01-27T01:07:02.463Z,11.63
2023-01-27T01:10:03.339Z,10.82
2023-01-27T01:13:04.514Z,10.98
2023-01-27T01:16:25.366Z,11.68
2023-01-27T01:19:26.268Z,12.73
2023-01-27T01:22:27.304Z,14.77
2023-01-27T01:25:28.079Z,10.07
2023-01-27T01:28:30.430Z,9.23
2023-01-27T01:31:31.416Z,9.15
2023-01-27T01:34:32.118Z,12.20
2023-01-27T01:37:33.017Z,12.35
2023-01-27T01:40:34.446Z,12.45
2023-01-27T01:43:35.389Z,11.35
2023-01-27T01:46:36.277Z,12.88
2023-01-27T01:49:40.328Z,11.77
2023-01-27T01:52:41.107Z,13.43
2023-01-27T01:55:43.538Z,11.45
2023-01-27T01:58:46.055Z,12.65
2023-01-27T02:01:46.858Z,14.27
2023-01-27T02:04:58.734Z,13.15
2023-01-27T02:08:13.018Z,17.38
2023-01-27T02:11:13.872Z,12.88
2023-01-27T02:14:16.526Z,15.90
2023-01-27T02:17:17.855Z,15.20
2023-01-27T02:20:18.546Z,16.02
2023-01-27T02:23:46.099Z,19.70
2023-01-27T02:26:47.068Z,17.50
2023-01-27T02:29:48.061Z,14.73
2023-01-27T02:32:49.502Z,19.25
2023-01-27T02:35:59.350Z,14.80
2023-01-27T02:39:02.196Z,19.42
2023-01-27T02:42:05.951Z,16.95
2023-01-27T02:45:07.248Z,13.20
2023-01-27T02:48:08.284Z,14.40
2023-01-27T02:51:09.424Z,15.35
2023-01-27T02:54:12.469Z,18.48
2023-01-27T02:57:13.189Z,13.85
2023-01-27T03:00:26.304Z,14.60
2023-01-27T03:03:28.903Z,12.52
2023-01-27T03:06:29.845Z,16.35
2023-01-27T03:09:30.658Z,14.93
2023-01-27T03:12:31.508Z,15.63
2023-01-27T03:15:50.740Z,12.25
2023-01-27T03:18:53.879Z,15.75
2023-01-27T03:21:56.336Z,15.00
2023-01-27T03:24:58.043Z,17.40
2023-01-27T03:28:00.283Z,14.85
2023-01-27T03:31:27.504Z,18.90
2023-01-27T03:34:35.244Z,16.63
2023-01-27T03:38:02.956Z,18.65
2023-01-27T03:41:23.872Z,18.85
2023-01-27T03:44:43.339Z,17.25
2023-01-27T03:47:44.014Z,20.88
2023-01-27T03:50:44.919Z,18.70
2023-01-27T03:53:45.691Z,17.35
2023-01-27T03:56:48.146Z,17.55
2023-01-27T03:59:49.843Z,15.43
2023-01-27T04:03:09.528Z,12.90
2023-01-27T04:06:33.123Z,15.25
2023-01-27T04:09:35.995Z,13.43
2023-01-27T04:12:37.040Z,15.02
2023-01-27T04:15:38.461Z,17.10
2023-01-27T04:18:39.697Z,14.93
2023-01-27T04:21:40.521Z,14.43
2023-01-27T04:24:41.616Z,19.92
2023-01-27T04:27:43.519Z,16.13
2023-01-27T04:30:44.332Z,14.43
2023-01-27T04:33:45.546Z,13.57
2023-01-27T04:36:47.757Z,12.65
2023-01-27T04:39:48.905Z,15.02
2023-01-27T04:42:49.519Z,12.90
2023-01-27T04:45:50.595Z,14.80
2023-01-27T04:48:51.631Z,13.40
2023-01-27T04:51:52.521Z,12.38
2023-01-27T04:54:53.067Z,12.63
2023-01-27T04:57:54.039Z,13.45
2023-01-27T05:00:55.034Z,11.25
2023-01-27T05:03:56.494Z,15.85
2023-01-27T05:06:57.376Z,18.45
2023-01-27T05:09:58.631Z,13.82
2023-01-27T05:12:59.771Z,15.35
2023-01-27T05:16:09.854Z,16.33
2023-01-27T05:19:10.593Z,19.00
2023-01-27T05:22:11.775Z,17.27
2023-01-27T05:25:13.124Z,16.85
2023-01-27T05:28:14.750Z,18.45
2023-01-27T05:31:24.405Z,21.90
2023-01-27T05:34:25.235Z,17.80
2023-01-27T05:37:26.561Z,19.33
2023-01-27T05:40:27.563Z,18.63
2023-01-27T05:43:29.732Z,19.83
2023-01-27T05:46:32.319Z,27.77
2023-01-27T05:49:33.615Z,20.00
2023-01-27T05:52:34.175Z,21.55
2023-01-27T05:55:35.128Z,24.35
2023-01-27T05:58:35.671Z,24.30
2023-01-27T06:01:37.746Z,17.65
2023-01-27T06:04:38.923Z,21.95
2023-01-27T06:07:39.756Z,21.48
2023-01-27T06:10:40.647Z,24.95
2023-01-27T06:13:42.174Z,24.85
2023-01-27T06:16:44.221Z,26.33
2023-01-27T06:19:44.951Z,20.77
2023-01-27T06:22:46.775Z,21.75
2023-01-27T06:25:49.248Z,22.50
2023-01-27T06:28:50.035Z,20.35
2023-01-27T06:31:50.862Z,21.27
2023-01-27T06:34:51.796Z,23.90
2023-01-27T06:37:52.449Z,22.65
2023-01-27T06:40:53.167Z,23.27
2023-01-27T06:43:53.886Z,26.67
2023-01-27T06:46:54.455Z,29.65
2023-01-27T06:49:55.408Z,24.40
2023-01-27T06:53:01.439Z,36.58
2023-01-27T06:56:02.587Z,26.75
2023-01-27T06:59:03.739Z,30.63
2023-01-27T07:02:04.373Z,26.77
2023-01-27T07:05:05.395Z,22.80
2023-01-27T07:08:06.259Z,25.25
2023-01-27T07:11:07.350Z,25.45
2023-01-27T07:14:10.478Z,22.27
2023-01-27T07:17:11.342Z,23.67
2023-01-27T07:20:13.956Z,21.70
2023-01-27T07:23:14.999Z,21.95
2023-01-27T07:26:24.808Z,18.73
2023-01-27T07:29:25.785Z,23.38
2023-01-27T07:32:28.444Z,19.48
2023-01-27T07:35:29.620Z,17.30
2023-01-27T07:38:30.580Z,16.88
2023-01-27T07:41:31.506Z,19.67
2023-01-27T07:44:32.281Z,17.70
2023-01-27T07:47:33.142Z,19.83
2023-01-27T07:50:39.597Z,16.73
2023-01-27T07:53:41.153Z,19.55
2023-01-27T07:56:42.142Z,16.50
2023-01-27T07:59:43.280Z,16.48
2023-01-27T08:02:44.000Z,15.20
2023-01-27T08:05:45.065Z,19.60
2023-01-27T08:08:46.014Z,20.45
2023-01-27T08:11:46.996Z,14.90
2023-01-27T08:14:47.779Z,16.15
2023-01-27T08:17:59.126Z,16.25
2023-01-27T08:21:01.396Z,14.00
2023-01-27T08:24:02.275Z,14.50
2023-01-27T08:27:03.495Z,15.35
2023-01-27T08:30:04.816Z,14.57
2023-01-27T08:33:05.952Z,11.75
2023-01-27T08:36:09.738Z,14.77
2023-01-27T08:39:11.431Z,14.90
2023-01-27T08:42:13.175Z,10.55
2023-01-27T08:45:14.803Z,8.65
2023-01-27T08:48:16.040Z,10.98
2023-01-27T08:51:17.086Z,9.23
2023-01-27T08:54:17.575Z,9.25
2023-01-27T08:57:18.151Z,9.82
2023-01-27T09:00:19.235Z,6.90
2023-01-27T09:03:20.253Z,9.32
2023-01-27T09:06:21.972Z,8.85
2023-01-27T09:09:23.175Z,10.10
2023-01-27T09:12:23.670Z,11.10
2023-01-27T09:15:24.837Z,12.07
2023-01-27T09:18:25.596Z,9.73
2023-01-27T09:21:27.117Z,7.72
2023-01-27T09:24:27.855Z,8.65
2023-01-27T09:27:38.757Z,10.80
2023-01-27T09:30:41.158Z,10.07
2023-01-27T09:33:42.344Z,12.98
2023-01-27T09:36:51.460Z,7.43
2023-01-27T09:39:58.679Z,10.15
2023-01-27T09:43:24.632Z,8.43
2023-01-27T09:46:47.795Z,9.10
2023-01-27T09:50:09.349Z,9.30
2023-01-27T09:53:28.832Z,9.07
2023-01-27T09:56:54.038Z,11.60
2023-01-27T09:59:58.233Z,9.07
2023-01-27T10:03:10.783Z,9.25
2023-01-27T10:06:44.152Z,7.85
2023-01-27T10:10:09.323Z,9.32
2023-01-27T10:13:18.386Z,9.02
2023-01-27T10:16:35.289Z,8.63
2023-01-27T10:19:56.924Z,8.32
2023-01-27T10:23:10.524Z,9.45
2023-01-27T10:26:49.602Z,13.20
2023-01-27T10:30:16.253Z,11.00
2023-01-27T10:33:19.433Z,7.32
2023-01-27T10:36:30.187Z,6.13
2023-01-27T10:40:04.862Z,7.75
2023-01-27T10:43:20.672Z,7.95
2023-01-27T10:47:04.962Z,7.35
2023-01-27T10:50:12.772Z,10.40
2023-01-27T10:53:17.033Z,7.60
2023-01-27T10:56:44.728Z,6.72
2023-01-27T11:00:21.869Z,13.73
2023-01-27T11:03:32.653Z,7.85
2023-01-27T11:06:37.772Z,7.68
2023-01-27T11:09:48.226Z,8.95
2023-01-27T11:12:53.696Z,6.50
2023-01-27T11:15:58.879Z,9.95
2023-01-27T11:19:11.279Z,5.57
2023-01-27T11:22:23.077Z,5.68
2023-01-27T11:25:38.368Z,6.35
2023-01-27T11:29:15.107Z,7.22
2023-01-27T11:32:47.654Z,7.68
2023-01-27T11:35:49.193Z,6.10
2023-01-27T11:38:50.212Z,7.25
2023-01-27T11:41:54.152Z,8.32
2023-01-27T11:44:56.538Z,6.38
2023-01-27T11:48:00.132Z,7.25
2023-01-27T11:51:01.794Z,7.32
2023-01-27T11:54:09.736Z,6.07
2023-01-27T11:57:20.386Z,6.85
2023-01-27T12:00:35.068Z,6.78
2023-01-27T12:03:54.423Z,6.07
2023-01-27T12:07:20.555Z,6.30
2023-01-27T12:10:23.189Z,5.20
2023-01-27T12:13:27.184Z,5.70
2023-01-27T12:16:49.350Z,7.57
2023-01-27T12:19:51.991Z,5.25
2023-01-27T12:22:55.643Z,7.32
2023-01-27T12:25:59.796Z,5.65
2023-01-27T12:29:06.039Z,6.70
2023-01-27T12:32:15.487Z,7.00
2023-01-27T12:35:26.488Z,6.88
2023-01-27T12:38:32.672Z,7.90
2023-01-27T12:41:36.582Z,8.13
2023-01-27T12:44:42.930Z,5.40
2023-01-27T12:48:00.013Z,7.43
2023-01-27T12:51:16.111Z,7.47
2023-01-27T12:54:24.741Z,6.63
2023-01-27T12:57:30.492Z,8.13
2023-01-27T13:00:33.197Z,7.05
2023-01-27T13:03:40.653Z,9.35
2023-01-27T13:06:55.266Z,7.07
2023-01-27T13:10:11.987Z,6.63
2023-01-27T13:13:20.602Z,8.35
2023-01-27T13:16:31.234Z,8.32
2023-01-27T13:19:42.646Z,6.72
2023-01-27T13:22:59.903Z,7.40
2023-01-27T13:26:10.738Z,8.13
2023-01-27T13:29:40.134Z,8.40
2023-01-27T13:32:43.737Z,6.90
2023-01-27T13:35:59.931Z,9.68
2023-01-27T13:39:23.569Z,6.00
2023-01-27T13:42:35.508Z,6.63
2023-01-27T13:45:48.579Z,7.15
2023-01-27T13:49:03.547Z,9.18
2023-01-27T13:52:08.099Z,8.77
2023-01-27T13:55:13.632Z,9.60
2023-01-27T13:58:21.486Z,6.53
2023-01-27T14:01:43.069Z,8.52
2023-01-27T14:04:58.982Z,8.02
2023-01-27T14:08:20.839Z,10.45
2023-01-27T14:11:40.509Z,7.47
2023-01-27T14:14:58.200Z,8.95
2023-01-27T14:18:12.959Z,8.57
2023-01-27T14:21:38.269Z,8.20
2023-01-27T14:28:00.755Z,8.05
2023-01-27T14:31:17.692Z,7.50
2023-01-27T14:34:46.012Z,7.43
2023-01-27T14:38:08.435Z,7.97
2023-01-27T14:41:32.274Z,10.20
2023-01-27T14:45:06.446Z,7.88
2023-01-27T14:48:49.347Z,8.10
2023-01-27T14:52:00.259Z,10.27
2023-01-27T14:55:21.492Z,8.05
2023-01-27T14:58:47.763Z,7.30
2023-01-27T15:02:03.146Z,8.15
2023-01-27T15:05:39.418Z,7.50
2023-01-27T15:09:02.199Z,14.95
2023-01-27T15:12:11.253Z,9.75
2023-01-27T15:15:30.279Z,11.73
2023-01-27T15:18:43.392Z,39.47
2023-01-27T15:22:13.200Z,6.90
2023-01-27T15:25:20.358Z,7.03
2023-01-27T15:28:27.223Z,6.40
2023-01-27T15:31:30.393Z,5.85
2023-01-27T15:34:31.291Z,7.65
2023-01-27T15:37:32.475Z,8.00
2023-01-27T15:40:59.547Z,7.90
2023-01-27T15:50:32.692Z,6.40
2023-01-27T15:53:41.908Z,7.85
2023-01-27T15:56:44.329Z,8.10
2023-01-27T15:59:58.359Z,6.63
2023-01-27T16:03:02.900Z,6.82
2023-01-27T16:06:12.366Z,7.63
2023-01-27T16:09:36.385Z,8.27
2023-01-27T16:12:43.635Z,7.55
2023-01-27T16:15:45.028Z,6.32
2023-01-27T16:19:11.069Z,7.93
2023-01-27T16:22:15.500Z,5.97
2023-01-27T16:25:35.790Z,8.25
2023-01-27T16:28:38.464Z,8.05
2023-01-27T16:31:41.752Z,8.00
2023-01-27T16:34:45.296Z,9.82
2023-01-27T16:38:00.725Z,7.35
2023-01-27T16:41:23.358Z,8.85
2023-01-27T16:44:46.019Z,10.45
2023-01-27T16:47:51.654Z,8.32
2023-01-27T16:50:54.143Z,11.90
2023-01-27T16:53:58.206Z,9.43
2023-01-27T16:56:59.340Z,11.57
2023-01-27T17:00:06.953Z,10.32
2023-01-27T17:03:16.651Z,10.25
2023-01-27T17:06:18.061Z,10.30
2023-01-27T17:09:20.095Z,12.57
2023-01-27T17:12:33.134Z,9.80
2023-01-27T17:15:38.654Z,13.05
2023-01-27T17:18:50.868Z,9.48
2023-01-27T17:22:10.383Z,9.45
2023-01-27T17:25:35.368Z,9.90
2023-01-27T17:28:36.539Z,10.23
2023-01-27T17:31:38.796Z,10.80
2023-01-27T17:34:41.216Z,12.05
2023-01-27T17:37:45.147Z,9.85
2023-01-27T17:40:48.648Z,10.73
2023-01-27T17:43:49.653Z,11.75
2023-01-27T17:46:50.325Z,10.55
2023-01-27T17:49:51.670Z,11.32
2023-01-27T17:52:56.059Z,11.40
2023-01-27T17:55:57.447Z,11.45
2023-01-27T17:59:20.867Z,13.10
2023-01-27T18:02:34.413Z,13.52
2023-01-27T18:05:37.884Z,12.25
2023-01-27T18:08:40.278Z,12.20
2023-01-27T18:11:53.428Z,12.77
2023-01-27T18:14:54.332Z,13.63
2023-01-27T18:17:59.537Z,12.15
2023-01-27T18:21:14.527Z,13.38
2023-01-27T18:24:24.623Z,11.52
2023-01-27T18:27:33.597Z,12.68
2023-01-27T18:30:34.523Z,11.60
2023-01-27T18:33:36.797Z,10.23
2023-01-27T18:36:39.194Z,11.52
2023-01-27T18:39:41.173Z,13.88
2023-01-27T18:42:42.191Z,13.05
2023-01-27T18:45:44.552Z,15.10
2023-01-27T18:48:46.086Z,13.20
2023-01-27T18:51:46.993Z,11.93
2023-01-27T18:54:48.136Z,14.48
2023-01-27T18:57:54.098Z,13.15
2023-01-27T19:00:57.697Z,16.13
2023-01-27T19:03:58.559Z,12.80
2023-01-27T19:07:00.389Z,14.68
2023-01-27T19:10:01.584Z,13.65
2023-01-27T19:13:03.468Z,17.08
2023-01-27T19:16:12.325Z,12.75
2023-01-27T19:19:13.061Z,16.08
2023-01-27T19:22:17.091Z,19.67
2023-01-27T19:25:18.630Z,15.18
2023-01-27T19:28:39.920Z,20.17
2023-01-27T19:31:40.918Z,13.55
2023-01-27T19:34:41.963Z,14.20
2023-01-27T19:37:42.911Z,17.83
2023-01-27T19:40:44.343Z,18.02
2023-01-27T19:43:50.084Z,16.30
2023-01-27T19:46:51.062Z,17.85
2023-01-27T19:49:52.188Z,17.85
2023-01-27T19:52:53.287Z,15.30
2023-01-27T19:55:57.455Z,15.32
2023-01-27T19:58:58.943Z,17.42
2023-01-27T20:01:59.815Z,17.83
2023-01-27T20:05:00.554Z,16.60
2023-01-27T20:08:01.469Z,18.90
2023-01-27T20:11:02.341Z,17.10
2023-01-27T20:14:30.058Z,18.75
2023-01-27T20:17:30.828Z,17.88
2023-01-27T20:20:31.799Z,21.17
2023-01-27T20:23:32.947Z,18.10
2023-01-27T20:26:34.127Z,21.98
2023-01-27T20:29:36.755Z,21.70
2023-01-27T20:32:37.676Z,26.40
2023-01-27T20:35:38.616Z,15.10
2023-01-27T20:38:39.900Z,17.40
2023-01-27T20:41:40.878Z,18.30
2023-01-27T20:44:41.711Z,18.83
2023-01-27T20:47:43.173Z,22.58
2023-01-27T20:50:44.091Z,20.10
2023-01-27T20:53:46.074Z,16.10
2023-01-27T20:56:46.804Z,19.27
2023-01-27T20:59:48.398Z,18.23
2023-01-27T21:02:49.158Z,19.13
2023-01-27T21:05:49.933Z,18.10
2023-01-27T21:08:50.859Z,18.42
2023-01-27T21:11:51.690Z,15.40
2023-01-27T21:14:52.488Z,19.08
2023-01-27T21:17:53.680Z,18.70
2023-01-27T21:20:55.995Z,17.58
2023-01-27T21:24:00.167Z,16.13
2023-01-27T21:27:01.407Z,17.73
2023-01-27T21:30:02.084Z,16.02
2023-01-27T21:33:03.087Z,17.33
2023-01-27T21:36:05.823Z,15.38
2023-01-27T21:39:07.215Z,18.30
2023-01-27T21:42:13.493Z,16.33
2023-01-27T21:45:16.038Z,14.27
2023-01-27T21:48:17.045Z,17.27
2023-01-27T21:51:18.000Z,19.00
2023-01-27T21:54:19.416Z,17.45
2023-01-27T21:57:20.676Z,15.15
2023-01-27T22:00:24.246Z,16.90
2023-01-27T22:03:25.337Z,20.92
2023-01-27T22:06:26.110Z,17.33
2023-01-27T22:09:26.918Z,17.05
2023-01-27T22:12:27.834Z,18.23
2023-01-27T22:15:31.241Z,22.02
2023-01-27T22:18:31.919Z,19.05
2023-01-27T22:21:32.693Z,17.63
2023-01-27T22:24:33.767Z,21.30
2023-01-27T22:27:35.168Z,19.80
2023-01-27T22:30:37.390Z,19.77
2023-01-27T22:33:38.356Z,18.80
2023-01-27T22:36:39.152Z,19.20
2023-01-27T22:39:42.396Z,17.50
2023-01-27T22:42:43.216Z,18.67
2023-01-27T22:45:44.321Z,21.63
2023-01-27T22:48:48.012Z,21.60
2023-01-27T22:51:48.978Z,21.05
2023-01-27T22:54:50.019Z,24.20
2023-01-27T22:57:50.988Z,24.58
2023-01-27T23:00:52.467Z,22.77
2023-01-27T23:03:53.422Z,20.90
2023-01-27T23:06:54.063Z,26.48
2023-01-27T23:09:55.196Z,22.52
2023-01-27T23:12:56.007Z,21.80
2023-01-27T23:15:57.408Z,24.42
2023-01-27T23:18:58.393Z,23.95
2023-01-27T23:25:40.718Z,26.67
2023-01-27T23:28:41.347Z,22.20
2023-01-27T23:31:42.594Z,20.92
2023-01-27T23:34:43.700Z,25.73
2023-01-27T23:37:44.497Z,24.67
2023-01-27T23:40:45.273Z,25.67
2023-01-27T23:43:52.328Z,24.58
2023-01-27T23:46:53.039Z,22.80
2023-01-27T23:49:54.114Z,23.67
2023-01-27T23:52:55.005Z,22.10
2023-01-27T23:55:57.585Z,22.25
2023-01-27T23:58:58.586Z,23.00
